Time;durP1;ratioP1;P1;durP2;ratioP2;P2;SDS_P1;SDS_P2;PMS_P1;PMS_P2;Temp;Humidity;BMP_temperature;BMP_pressure;BME280_temperature;BME280_humidity;BME280_pressure;Samples;Min_cycle;Max_cycle;Signal;HPM_P1;HPM_P2
2023/04/27 00:00:49;;;;;;;11.77;5.68;;;;;;;;;;4967131;28;20077;-73
2023/04/27 00:03:15;;;;;;;11.80;5.13;;;;;;;;;;4999165;28;20089;-71
2023/04/27 00:05:42;;;;;;;13.00;5.25;;;;;;;;;;4979412;28;20651;-72
2023/04/27 00:08:08;;;;;;;11.27;5.07;;;;;;;;;;4988841;28;20027;-71
2023/04/27 00:10:34;;;;;;;10.80;5.13;;;;;;;;;;4986673;28;20388;-73
2023/04/27 00:13:01;;;;;;;9.85;5.65;;;;;;;;;;4981997;28;20023;-72
2023/04/27 00:15:27;;;;;;;10.77;5.10;;;;;;;;;;4995561;23;20097;-73
2023/04/27 00:17:53;;;;;;;10.02;5.20;;;;;;;;;;4957196;28;20027;-74
2023/04/27 00:20:19;;;;;;;12.38;5.95;;;;;;;;;;4975610;28;20097;-74
2023/04/27 00:22:45;;;;;;;11.02;5.55;;;;;;;;;;4975801;28;20023;-74
2023/04/27 00:25:11;;;;;;;12.60;6.25;;;;;;;;;;4975740;28;20397;-73
2023/04/27 00:27:37;;;;;;;10.70;6.03;;;;;;;;;;4975805;28;20736;-73
2023/04/27 00:30:04;;;;;;;10.55;5.05;;;;;;;;;;4975728;28;20027;-74
2023/04/27 00:32:30;;;;;;;9.40;5.72;;;;;;;;;;4975585;28;20101;-73
2023/04/27 00:34:56;;;;;;;10.90;5.63;;;;;;;;;;4958405;28;20054;-73
2023/04/27 00:37:22;;;;;;;10.63;5.35;;;;;;;;;;4975437;28;20129;-74
2023/04/27 00:39:48;;;;;;;12.40;5.95;;;;;;;;;;4975904;28;20027;-74
2023/04/27 00:42:18;;;;;;;13.13;6.00;;;;;;;;;;4975503;28;20027;-73
2023/04/27 00:44:44;;;;;;;17.13;6.03;;;;;;;;;;4975432;28;20078;-73
2023/04/27 00:47:10;;;;;;;13.00;6.03;;;;;;;;;;4957786;28;20059;-74
2023/04/27 00:49:37;;;;;;;16.70;6.53;;;;;;;;;;4975118;28;20033;-74
2023/04/27 00:52:03;;;;;;;11.85;5.53;;;;;;;;;;4975104;28;20027;-75
2023/04/27 00:54:29;;;;;;;10.77;5.90;;;;;;;;;;4975255;28;20512;-74
2023/04/27 00:56:55;;;;;;;10.88;6.97;;;;;;;;;;4975174;28;20015;-75
2023/04/27 00:59:21;;;;;;;15.15;6.20;;;;;;;;;;4974898;28;20027;-74
2023/04/27 01:01:48;;;;;;;15.32;6.13;;;;;;;;;;4975012;28;20528;-74
2023/04/27 01:04:15;;;;;;;15.60;6.50;;;;;;;;;;4974953;28;20023;-73
2023/04/27 01:06:41;;;;;;;10.80;5.93;;;;;;;;;;4974040;28;20432;-76
2023/04/27 01:09:08;;;;;;;11.40;5.07;;;;;;;;;;4974829;28;20038;-76
2023/04/27 01:11:34;;;;;;;12.52;6.25;;;;;;;;;;4974843;28;20050;-74
2023/04/27 01:14:04;;;;;;;12.25;5.97;;;;;;;;;;4957500;28;20444;-74
2023/04/27 01:16:31;;;;;;;12.27;6.68;;;;;;;;;;4957284;28;20027;-74
2023/04/27 01:18:57;;;;;;;10.45;6.00;;;;;;;;;;4974465;28;20080;-74
2023/04/27 01:21:26;;;;;;;13.73;6.82;;;;;;;;;;4974615;28;20365;-72
2023/04/27 01:23:52;;;;;;;12.55;6.20;;;;;;;;;;4975144;28;20389;-74
2023/04/27 01:26:18;;;;;;;11.88;7.07;;;;;;;;;;4957122;28;20488;-74
2023/04/27 01:28:45;;;;;;;12.13;7.55;;;;;;;;;;4957041;28;20035;-74
2023/04/27 01:31:11;;;;;;;14.32;6.30;;;;;;;;;;4957090;28;20054;-74
2023/04/27 01:33:37;;;;;;;10.88;6.85;;;;;;;;;;4974274;28;20022;-74
2023/04/27 01:36:04;;;;;;;13.35;6.97;;;;;;;;;;4957143;28;20022;-74
2023/04/27 01:38:30;;;;;;;10.40;6.28;;;;;;;;;;4974349;28;20027;-74
2023/04/27 01:41:00;;;;;;;15.80;6.97;;;;;;;;;;4956969;28;20122;-74
2023/04/27 01:43:27;;;;;;;14.98;6.85;;;;;;;;;;4974413;28;20074;-73
2023/04/27 01:45:53;;;;;;;15.05;7.22;;;;;;;;;;4974099;28;20388;-73
2023/04/27 01:48:19;;;;;;;12.57;7.15;;;;;;;;;;4973864;28;20049;-73
2023/04/27 01:50:45;;;;;;;10.98;7.15;;;;;;;;;;4974319;28;20473;-73
2023/04/27 01:53:11;;;;;;;17.48;7.60;;;;;;;;;;4974241;28;20027;-73
2023/04/27 01:55:37;;;;;;;13.13;7.25;;;;;;;;;;4974589;28;20077;-73
2023/04/27 01:58:03;;;;;;;13.82;7.40;;;;;;;;;;4956337;28;20501;-73
2023/04/27 02:00:29;;;;;;;12.18;6.82;;;;;;;;;;4974069;28;20031;-73
2023/04/27 02:02:59;;;;;;;10.88;7.45;;;;;;;;;;4973849;28;20433;-73
2023/04/27 02:05:25;;;;;;;13.35;7.68;;;;;;;;;;4956574;28;20030;-73
2023/04/27 02:07:51;;;;;;;13.27;7.15;;;;;;;;;;4973684;28;20072;-73
2023/04/27 02:10:17;;;;;;;16.25;8.20;;;;;;;;;;4973935;28;20405;-74
2023/04/27 02:12:43;;;;;;;13.65;7.57;;;;;;;;;;4973992;28;20019;-74
2023/04/27 02:15:09;;;;;;;14.93;7.28;;;;;;;;;;4973393;28;20038;-73
2023/04/27 02:17:35;;;;;;;16.35;7.40;;;;;;;;;;4973489;28;20034;-74
2023/04/27 02:20:01;;;;;;;11.20;6.50;;;;;;;;;;4973850;28;20082;-74
2023/04/27 02:22:27;;;;;;;15.52;7.28;;;;;;;;;;4974037;28;20444;-74
2023/04/27 02:24:53;;;;;;;12.40;6.82;;;;;;;;;;4956381;28;20026;-75
2023/04/27 02:27:19;;;;;;;11.68;6.78;;;;;;;;;;4973330;28;20050;-75
2023/04/27 02:29:45;;;;;;;14.27;7.45;;;;;;;;;;4973234;28;20022;-75
2023/04/27 02:32:11;;;;;;;11.90;6.38;;;;;;;;;;4956220;28;20077;-75
2023/04/27 02:34:37;;;;;;;14.95;8.10;;;;;;;;;;4974013;28;20098;-71
2023/04/27 02:37:03;;;;;;;10.90;6.35;;;;;;;;;;4974617;28;20575;-72
2023/04/27 02:39:30;;;;;;;15.18;8.15;;;;;;;;;;4973937;28;20680;-72
2023/04/27 02:41:56;;;;;;;13.80;7.72;;;;;;;;;;4956136;28;20037;-71
2023/04/27 02:44:22;;;;;;;19.80;8.65;;;;;;;;;;4973121;28;20027;-72
2023/04/27 02:46:48;;;;;;;10.95;7.20;;;;;;;;;;4972985;28;20531;-72
2023/04/27 02:49:15;;;;;;;12.43;7.38;;;;;;;;;;4972812;28;20070;-72
2023/04/27 02:51:41;;;;;;;14.95;7.93;;;;;;;;;;4972947;28;20023;-71
2023/04/27 02:54:07;;;;;;;16.27;8.00;;;;;;;;;;4972974;28;20023;-71
2023/04/27 02:56:33;;;;;;;13.13;8.07;;;;;;;;;;4972896;28;20094;-72
2023/04/27 02:58:59;;;;;;;18.42;9.05;;;;;;;;;;4972487;28;20442;-72
2023/04/27 03:01:25;;;;;;;12.43;7.07;;;;;;;;;;4972960;28;20021;-71
2023/04/27 03:03:51;;;;;;;13.82;6.68;;;;;;;;;;4955480;28;20030;-73
2023/04/27 03:06:17;;;;;;;14.80;7.70;;;;;;;;;;4972792;28;20466;-72
2023/04/27 03:08:43;;;;;;;12.02;7.57;;;;;;;;;;4972738;28;20029;-72
2023/04/27 03:11:11;;;;;;;17.65;9.00;;;;;;;;;;4972728;28;20105;-73
2023/04/27 03:13:43;;;;;;;13.95;7.35;;;;;;;;;;4972649;28;20524;-73
2023/04/27 03:16:10;;;;;;;15.70;8.13;;;;;;;;;;4955171;28;20038;-72
2023/04/27 03:18:36;;;;;;;14.95;7.03;;;;;;;;;;4972586;28;20031;-72
2023/04/27 03:21:08;;;;;;;11.80;7.82;;;;;;;;;;4955149;28;20062;-73
2023/04/27 03:23:35;;;;;;;12.00;7.45;;;;;;;;;;4955223;28;20023;-73
2023/04/27 03:26:01;;;;;;;17.13;8.18;;;;;;;;;;4972186;28;20110;-73
2023/04/27 03:28:27;;;;;;;14.23;8.25;;;;;;;;;;4971938;28;20081;-73
2023/04/27 03:30:53;;;;;;;14.02;7.50;;;;;;;;;;4972228;28;20497;-74
2023/04/27 03:33:20;;;;;;;16.70;8.95;;;;;;;;;;4972547;28;20033;-74
2023/04/27 03:35:54;;;;;;;18.88;8.52;;;;;;;;;;4955239;28;20387;-73
2023/04/27 03:38:20;;;;;;;15.00;8.13;;;;;;;;;;4972218;28;20026;-73
2023/04/27 03:40:46;;;;;;;15.15;7.80;;;;;;;;;;4972487;28;20030;-74
2023/04/27 03:43:12;;;;;;;11.98;7.97;;;;;;;;;;4968559;28;20157;-73
2023/04/27 03:45:38;;;;;;;14.35;8.18;;;;;;;;;;4972677;28;20363;-74
2023/04/27 03:48:04;;;;;;;13.35;7.72;;;;;;;;;;4972406;28;20027;-73
2023/04/27 03:50:30;;;;;;;12.85;7.78;;;;;;;;;;4958755;28;20037;-73
2023/04/27 03:52:56;;;;;;;16.55;8.10;;;;;;;;;;4976947;28;20102;-74
2023/04/27 03:55:22;;;;;;;11.23;7.47;;;;;;;;;;4976717;28;20098;-72
2023/04/27 03:57:48;;;;;;;15.20;7.35;;;;;;;;;;4975310;28;20437;-73
2023/04/27 04:00:14;;;;;;;16.92;7.72;;;;;;;;;;4975528;28;20038;-73
2023/04/27 04:02:41;;;;;;;13.48;7.70;;;;;;;;;;4973812;28;20027;-73
2023/04/27 04:05:07;;;;;;;17.52;8.20;;;;;;;;;;4972439;28;20122;-73
2023/04/27 04:07:33;;;;;;;10.85;6.53;;;;;;;;;;4954721;28;20062;-73
2023/04/27 04:10:00;;;;;;;11.05;7.20;;;;;;;;;;4972261;28;20097;-73
2023/04/27 04:12:26;;;;;;;11.02;7.10;;;;;;;;;;4972383;28;20085;-73
2023/04/27 04:14:52;;;;;;;12.23;7.88;;;;;;;;;;4967934;28;20495;-72
2023/04/27 04:17:18;;;;;;;14.30;6.43;;;;;;;;;;4969252;28;20790;-73
2023/04/27 04:19:44;;;;;;;10.27;6.82;;;;;;;;;;4970481;28;20031;-72
2023/04/27 04:22:10;;;;;;;12.13;6.85;;;;;;;;;;4971101;28;20039;-72
2023/04/27 04:24:38;;;;;;;12.00;7.88;;;;;;;;;;4971860;28;20023;-72
2023/04/27 04:27:04;;;;;;;11.70;6.55;;;;;;;;;;4954221;28;20038;-70
2023/04/27 04:29:31;;;;;;;13.07;6.85;;;;;;;;;;4954335;28;20027;-72
2023/04/27 04:31:57;;;;;;;10.85;6.85;;;;;;;;;;4971822;28;20078;-73
2023/04/27 04:34:23;;;;;;;11.80;6.70;;;;;;;;;;4971660;28;20034;-73
2023/04/27 04:36:53;;;;;;;15.48;6.13;;;;;;;;;;4971758;28;20026;-73
2023/04/27 04:39:19;;;;;;;10.55;6.13;;;;;;;;;;4971562;28;20607;-73
2023/04/27 04:41:46;;;;;;;11.98;6.93;;;;;;;;;;4973579;28;20050;-74
2023/04/27 04:44:12;;;;;;;9.80;5.93;;;;;;;;;;4975172;28;20029;-73
2023/04/27 04:46:38;;;;;;;15.63;6.60;;;;;;;;;;4975239;28;20050;-73
2023/04/27 04:49:04;;;;;;;10.27;5.63;;;;;;;;;;4957440;28;20027;-73
2023/04/27 04:51:30;;;;;;;14.52;6.18;;;;;;;;;;4975263;28;20050;-71
2023/04/27 04:53:56;;;;;;;9.50;5.20;;;;;;;;;;4975140;28;20027;-73
2023/04/27 04:56:22;;;;;;;12.40;5.38;;;;;;;;;;4975106;28;20444;-73
2023/04/27 04:58:48;;;;;;;8.43;5.22;;;;;;;;;;4974975;28;20030;-74
2023/04/27 05:01:14;;;;;;;14.15;6.63;;;;;;;;;;4975294;28;20030;-74
2023/04/27 05:03:40;;;;;;;11.18;6.18;;;;;;;;;;4975371;28;20023;-73
2023/04/27 05:06:06;;;;;;;13.27;5.72;;;;;;;;;;4975188;28;20033;-74
2023/04/27 05:08:32;;;;;;;10.25;5.82;;;;;;;;;;4975217;28;20026;-75
2023/04/27 05:10:58;;;;;;;13.13;5.28;;;;;;;;;;4958034;28;20122;-74
2023/04/27 05:13:25;;;;;;;9.63;5.45;;;;;;;;;;4975131;28;20030;-72
2023/04/27 05:15:51;;;;;;;11.88;6.63;;;;;;;;;;4974866;28;20118;-72
2023/04/27 05:18:17;;;;;;;10.32;6.63;;;;;;;;;;4974534;28;20482;-72
2023/04/27 05:20:43;;;;;;;9.68;6.38;;;;;;;;;;4975293;28;20037;-73
2023/04/27 05:23:10;;;;;;;10.98;6.03;;;;;;;;;;4975038;28;20456;-73
2023/04/27 05:25:42;;;;;;;16.60;7.53;;;;;;;;;;4974765;28;20042;-74
2023/04/27 05:28:08;;;;;;;14.48;7.03;;;;;;;;;;4974458;28;20041;-72
2023/04/27 05:30:35;;;;;;;14.38;6.78;;;;;;;;;;4974590;28;20031;-74
2023/04/27 05:33:01;;;;;;;11.88;6.30;;;;;;;;;;4956872;28;20508;-73
2023/04/27 05:35:27;;;;;;;11.85;6.30;;;;;;;;;;4974417;28;20074;-73
2023/04/27 05:37:53;;;;;;;14.00;6.15;;;;;;;;;;4956518;28;20019;-73
2023/04/27 05:40:19;;;;;;;11.50;6.05;;;;;;;;;;4974277;28;20114;-73
2023/04/27 05:42:46;;;;;;;12.27;6.43;;;;;;;;;;4973592;28;20023;-74
2023/04/27 05:45:12;;;;;;;11.70;6.55;;;;;;;;;;4974187;28;20039;-73
2023/04/27 05:47:38;;;;;;;11.10;5.78;;;;;;;;;;4973451;28;20109;-73
2023/04/27 05:50:05;;;;;;;12.27;6.00;;;;;;;;;;4974277;28;20027;-72
2023/04/27 05:52:31;;;;;;;12.50;6.07;;;;;;;;;;4973740;28;20027;-72
2023/04/27 05:54:57;;;;;;;13.05;6.05;;;;;;;;;;4973890;28;20074;-74
2023/04/27 05:57:24;;;;;;;10.30;4.80;;;;;;;;;;4973433;28;20034;-73
2023/04/27 05:59:50;;;;;;;10.27;5.07;;;;;;;;;;4973672;28;20033;-72
2023/04/27 06:02:16;;;;;;;10.43;5.10;;;;;;;;;;4973586;28;20054;-74
2023/04/27 06:04:42;;;;;;;12.73;4.72;;;;;;;;;;4974026;28;20030;-73
2023/04/27 06:07:08;;;;;;;10.88;5.38;;;;;;;;;;4975110;28;20524;-72
2023/04/27 06:09:35;;;;;;;10.57;4.78;;;;;;;;;;4964523;28;20154;-73
2023/04/27 06:12:03;;;;;;;11.85;4.68;;;;;;;;;;4967897;28;20547;-74
2023/04/27 06:14:37;;;;;;;10.68;5.10;;;;;;;;;;4972405;28;20042;-72
2023/04/27 06:17:03;;;;;;;9.60;4.97;;;;;;;;;;4971399;28;20042;-73
2023/04/27 06:19:30;;;;;;;9.93;4.50;;;;;;;;;;4971478;28;20037;-73
2023/04/27 06:21:56;;;;;;;11.80;4.63;;;;;;;;;;4971763;28;20035;-73
2023/04/27 06:24:22;;;;;;;11.05;4.65;;;;;;;;;;4971520;28;20097;-74
2023/04/27 06:26:51;;;;;;;11.15;4.43;;;;;;;;;;4971945;28;20037;-75
2023/04/27 06:29:17;;;;;;;8.65;4.25;;;;;;;;;;4972260;28;20034;-74
2023/04/27 06:31:43;;;;;;;7.75;4.32;;;;;;;;;;4973751;28;20098;-73
2023/04/27 06:34:09;;;;;;;5.65;4.00;;;;;;;;;;4973076;28;20081;-73
2023/04/27 06:36:35;;;;;;;8.82;4.35;;;;;;;;;;4972660;28;20041;-73
2023/04/27 06:39:01;;;;;;;8.15;4.75;;;;;;;;;;4954327;28;20101;-73
2023/04/27 06:41:28;;;;;;;13.13;5.25;;;;;;;;;;4969011;28;20074;-74
2023/04/27 06:43:54;;;;;;;10.20;4.78;;;;;;;;;;4956229;28;20046;-74
2023/04/27 06:46:20;;;;;;;8.48;4.50;;;;;;;;;;4972859;28;20153;-73
2023/04/27 06:48:46;;;;;;;11.60;4.25;;;;;;;;;;4972760;28;20023;-73
2023/04/27 06:51:13;;;;;;;12.82;4.32;;;;;;;;;;4972819;28;20101;-73
2023/04/27 06:53:39;;;;;;;9.75;4.07;;;;;;;;;;4972946;28;20022;-74
2023/04/27 06:56:06;;;;;;;12.15;4.80;;;;;;;;;;4972909;28;20023;-73
2023/04/27 06:58:32;;;;;;;12.10;4.57;;;;;;;;;;4972430;28;20114;-74
2023/04/27 07:00:58;;;;;;;12.52;5.50;;;;;;;;;;4972859;28;20101;-74
2023/04/27 07:03:24;;;;;;;9.93;5.65;;;;;;;;;;4972289;28;20443;-77
2023/04/27 07:05:50;;;;;;;15.30;6.60;;;;;;;;;;4972589;28;20105;-77
2023/04/27 07:08:16;;;;;;;13.82;6.53;;;;;;;;;;4972731;28;20097;-76
2023/04/27 07:10:42;;;;;;;10.73;5.57;;;;;;;;;;4968992;28;20165;-76
2023/04/27 07:13:09;;;;;;;9.15;5.40;;;;;;;;;;4968708;28;20026;-77
2023/04/27 07:15:35;;;;;;;10.95;5.13;;;;;;;;;;4954888;28;20031;-76
2023/04/27 07:18:01;;;;;;;16.23;6.15;;;;;;;;;;4971430;28;20077;-76
2023/04/27 07:20:27;;;;;;;10.70;4.88;;;;;;;;;;4972424;28;20622;-77
2023/04/27 07:22:53;;;;;;;12.65;5.10;;;;;;;;;;4971652;28;20037;-77
2023/04/27 07:25:19;;;;;;;11.32;5.40;;;;;;;;;;4971847;28;20019;-77
2023/04/27 07:27:45;;;;;;;12.23;5.65;;;;;;;;;;4970936;28;20498;-77
2023/04/27 07:30:13;;;;;;;9.30;4.80;;;;;;;;;;4972038;28;20034;-77
2023/04/27 07:32:41;;;;;;;11.70;5.05;;;;;;;;;;4972125;28;20023;-78
2023/04/27 07:35:12;;;;;;;9.70;4.93;;;;;;;;;;4972057;28;20550;-77
2023/04/27 07:37:39;;;;;;;11.47;5.13;;;;;;;;;;4954920;28;20511;-79
2023/04/27 07:40:17;;;;;;;13.65;6.05;;;;;;;;;;4972900;28;20034;-77
2023/04/27 07:42:45;;;;;;;10.80;5.63;;;;;;;;;;4968437;28;20050;-77
2023/04/27 07:45:11;;;;;;;10.63;4.88;;;;;;;;;;4955206;28;20503;-77
2023/04/27 07:47:37;;;;;;;14.52;4.95;;;;;;;;;;4954720;28;20721;-77
2023/04/27 07:50:05;;;;;;;9.07;4.78;;;;;;;;;;4970592;28;20598;-77
2023/04/27 07:52:31;;;;;;;10.75;5.18;;;;;;;;;;4974698;28;20125;-77
2023/04/27 07:54:57;;;;;;;13.88;5.80;;;;;;;;;;4971813;28;20031;-74
2023/04/27 07:57:23;;;;;;;9.80;5.78;;;;;;;;;;4970185;28;20417;-75
2023/04/27 07:59:49;;;;;;;12.38;5.15;;;;;;;;;;4953136;28;20077;-76
2023/04/27 08:02:15;;;;;;;9.88;4.80;;;;;;;;;;4970705;28;20397;-75
2023/04/27 08:04:41;;;;;;;10.27;5.38;;;;;;;;;;4970785;28;20023;-76
2023/04/27 08:07:07;;;;;;;11.13;5.53;;;;;;;;;;4952982;28;20042;-75
2023/04/27 08:09:33;;;;;;;11.90;5.53;;;;;;;;;;4953204;28;20026;-75
2023/04/27 08:11:59;;;;;;;13.18;5.05;;;;;;;;;;4972458;28;20023;-76
2023/04/27 08:14:26;;;;;;;10.63;4.75;;;;;;;;;;4970919;28;20497;-76
2023/04/27 08:16:52;;;;;;;12.25;4.70;;;;;;;;;;4975808;28;20039;-76
2023/04/27 08:19:18;;;;;;;12.70;4.88;;;;;;;;;;4974539;28;20517;-76
2023/04/27 08:21:44;;;;;;;12.23;4.70;;;;;;;;;;4971854;28;20101;-76
2023/04/27 08:24:10;;;;;;;13.52;4.78;;;;;;;;;;4957307;28;20059;-76
2023/04/27 08:26:36;;;;;;;9.98;4.68;;;;;;;;;;4948529;28;20023;-75
2023/04/27 08:29:02;;;;;;;12.20;4.78;;;;;;;;;;4974518;28;20034;-76
2023/04/27 08:31:28;;;;;;;13.55;5.90;;;;;;;;;;4956932;28;20054;-75
2023/04/27 08:33:54;;;;;;;12.15;5.63;;;;;;;;;;4975779;28;20473;-76
2023/04/27 08:36:25;;;;;;;14.93;5.45;;;;;;;;;;4974329;28;20489;-76
2023/04/27 08:38:52;;;;;;;12.00;4.93;;;;;;;;;;4958003;28;20077;-75
2023/04/27 08:41:20;;;;;;;7.70;5.32;;;;;;;;;;4971428;28;20259;-76
2023/04/27 08:43:48;;;;;;;8.75;5.20;;;;;;;;;;4975698;28;20417;-77
2023/04/27 08:46:17;;;;;;;9.65;5.00;;;;;;;;;;4975380;28;20114;-75
2023/04/27 08:48:43;;;;;;;12.18;5.70;;;;;;;;;;4975326;28;20367;-75
2023/04/27 08:51:10;;;;;;;15.00;5.95;;;;;;;;;;4957720;28;20062;-76
2023/04/27 08:53:36;;;;;;;15.18;5.68;;;;;;;;;;4975322;28;20023;-76
2023/04/27 08:56:03;;;;;;;12.05;5.70;;;;;;;;;;4975200;28;20018;-76
2023/04/27 08:58:38;;;;;;;14.65;5.53;;;;;;;;;;4975066;28;20123;-75
2023/04/27 09:01:06;;;;;;;10.57;5.50;;;;;;;;;;4957673;28;20088;-76
2023/04/27 09:03:33;;;;;;;9.18;4.65;;;;;;;;;;4975016;28;20420;-76
2023/04/27 09:05:59;;;;;;;12.85;4.85;;;;;;;;;;4975174;28;20041;-77
2023/04/27 09:08:25;;;;;;;10.13;4.40;;;;;;;;;;4974881;28;20031;-76
2023/04/27 09:10:53;;;;;;;5.53;3.75;;;;;;;;;;4957409;28;20033;-76
2023/04/27 09:13:19;;;;;;;10.40;4.00;;;;;;;;;;4975084;28;20086;-77
2023/04/27 09:15:49;;;;;;;9.60;3.88;;;;;;;;;;4957247;28;20524;-76
2023/04/27 09:18:22;;;;;;;9.32;3.63;;;;;;;;;;4974948;28;20158;-75
2023/04/27 09:20:49;;;;;;;7.25;3.72;;;;;;;;;;4974803;28;20027;-74
2023/04/27 09:23:27;;;;;;;7.53;4.15;;;;;;;;;;4975254;28;20394;-75
2023/04/27 09:25:57;;;;;;;15.32;3.60;;;;;;;;;;4960186;28;20027;-75
2023/04/27 09:28:24;;;;;;;7.25;4.25;;;;;;;;;;4972693;28;20068;-76
2023/04/27 09:30:54;;;;;;;13.15;3.95;;;;;;;;;;4968370;28;20027;-75
2023/04/27 09:33:29;;;;;;;9.18;4.32;;;;;;;;;;4969644;28;20026;-77
2023/04/27 09:35:55;;;;;;;10.82;3.97;;;;;;;;;;4959979;28;20027;-75
2023/04/27 09:38:22;;;;;;;7.90;4.72;;;;;;;;;;4973190;28;20023;-75
2023/04/27 09:40:49;;;;;;;10.15;4.93;;;;;;;;;;4972500;28;20536;-75
2023/04/27 09:43:15;;;;;;;7.38;4.05;;;;;;;;;;4972380;28;20031;-76
2023/04/27 09:45:42;;;;;;;9.73;4.50;;;;;;;;;;4972255;28;20094;-75
2023/04/27 09:48:09;;;;;;;8.52;5.22;;;;;;;;;;4970837;28;20038;-73
2023/04/27 09:50:35;;;;;;;5.28;4.55;;;;;;;;;;4972467;28;20038;-75
2023/04/27 09:53:02;;;;;;;7.55;5.00;;;;;;;;;;4955147;28;20048;-76
2023/04/27 09:55:32;;;;;;;9.70;5.20;;;;;;;;;;4954843;28;20545;-75
2023/04/27 09:58:16;;;;;;;7.45;4.82;;;;;;;;;;4973706;28;20031;-76
2023/04/27 10:00:48;;;;;;;7.70;4.63;;;;;;;;;;4974278;28;20031;-76
2023/04/27 10:03:20;;;;;;;8.75;4.63;;;;;;;;;;4974052;28;20027;-76
2023/04/27 10:06:01;;;;;;;13.10;4.85;;;;;;;;;;4958516;28;20030;-75
2023/04/27 10:08:28;;;;;;;8.77;4.53;;;;;;;;;;4974139;28;20031;-77
2023/04/27 10:10:55;;;;;;;10.00;4.70;;;;;;;;;;4973806;28;20513;-76
2023/04/27 10:13:25;;;;;;;12.52;4.97;;;;;;;;;;4973681;28;20030;-74
2023/04/27 10:15:51;;;;;;;8.90;5.03;;;;;;;;;;4971344;28;20543;-75
2023/04/27 10:18:30;;;;;;;8.05;4.80;;;;;;;;;;4959145;28;20047;-76
2023/04/27 10:20:56;;;;;;;11.60;5.82;;;;;;;;;;4973021;28;20027;-76
2023/04/27 10:23:26;;;;;;;12.25;5.00;;;;;;;;;;4973141;28;20034;-76
2023/04/27 10:25:53;;;;;;;8.20;5.38;;;;;;;;;;4973251;28;20493;-76
2023/04/27 10:28:22;;;;;;;8.60;5.03;;;;;;;;;;4970604;28;20473;-75
2023/04/27 10:30:48;;;;;;;9.77;5.45;;;;;;;;;;4973008;28;20034;-76
2023/04/27 10:33:19;;;;;;;7.28;5.32;;;;;;;;;;4972949;28;20371;-76
2023/04/27 10:35:53;;;;;;;9.85;5.80;;;;;;;;;;4956695;28;20021;-74
2023/04/27 10:38:23;;;;;;;7.45;5.05;;;;;;;;;;4969319;28;20035;-76
2023/04/27 10:41:00;;;;;;;10.65;5.53;;;;;;;;;;4972293;28;20101;-77
2023/04/27 10:43:27;;;;;;;10.25;5.68;;;;;;;;;;4972514;28;20018;-75
2023/04/27 10:45:54;;;;;;;11.18;5.10;;;;;;;;;;4971994;28;20054;-76
2023/04/27 10:48:21;;;;;;;8.20;5.20;;;;;;;;;;4971388;28;20031;-75
2023/04/27 10:50:47;;;;;;;11.10;5.50;;;;;;;;;;4972990;28;20050;-77
2023/04/27 10:53:14;;;;;;;11.25;5.05;;;;;;;;;;4972992;28;20078;-76
2023/04/27 10:55:40;;;;;;;7.60;4.90;;;;;;;;;;4972836;28;20022;-75
2023/04/27 10:58:06;;;;;;;11.10;5.18;;;;;;;;;;4972650;28;20081;-76
2023/04/27 11:00:36;;;;;;;12.32;5.10;;;;;;;;;;4972621;28;20027;-75
2023/04/27 11:03:16;;;;;;;8.95;5.50;;;;;;;;;;4972948;28;20027;-75
2023/04/27 11:05:45;;;;;;;8.93;5.35;;;;;;;;;;4972823;28;20463;-74
2023/04/27 11:08:13;;;;;;;6.90;5.15;;;;;;;;;;4972756;28;20023;-76
2023/04/27 11:10:48;;;;;;;15.68;5.38;;;;;;;;;;4955285;28;20031;-76
2023/04/27 11:13:14;;;;;;;11.18;5.43;;;;;;;;;;4972883;28;20066;-74
2023/04/27 11:15:43;;;;;;;9.02;5.15;;;;;;;;;;4970702;28;20125;-73
2023/04/27 11:18:09;;;;;;;7.82;5.35;;;;;;;;;;4954112;28;20023;-75
2023/04/27 11:20:35;;;;;;;7.55;4.90;;;;;;;;;;4971179;28;20397;-75
2023/04/27 11:23:01;;;;;;;7.82;4.93;;;;;;;;;;4970353;28;20022;-76
2023/04/27 11:25:28;;;;;;;11.05;5.20;;;;;;;;;;4970903;28;20046;-75
2023/04/27 11:27:55;;;;;;;7.88;4.75;;;;;;;;;;4970879;28;20163;-76
2023/04/27 11:30:22;;;;;;;6.85;4.85;;;;;;;;;;4953622;28;20433;-75
2023/04/27 11:32:48;;;;;;;8.65;5.00;;;;;;;;;;4954338;28;20117;-76
2023/04/27 11:35:14;;;;;;;9.70;4.93;;;;;;;;;;4955489;28;20033;-76
2023/04/27 11:37:41;;;;;;;8.05;4.68;;;;;;;;;;4954997;28;20031;-75
2023/04/27 11:40:08;;;;;;;6.95;5.40;;;;;;;;;;4972535;28;20034;-75
2023/04/27 11:42:34;;;;;;;10.30;5.03;;;;;;;;;;4973068;28;20042;-75
2023/04/27 11:45:07;;;;;;;6.57;4.85;;;;;;;;;;4972763;28;20427;-75
2023/04/27 11:47:34;;;;;;;16.13;5.60;;;;;;;;;;4972236;28;20056;-74
2023/04/27 11:50:03;;;;;;;8.95;5.40;;;;;;;;;;4974166;28;20516;-77
2023/04/27 11:52:37;;;;;;;9.45;4.85;;;;;;;;;;4976760;28;20222;-75
2023/04/27 11:55:03;;;;;;;8.30;5.50;;;;;;;;;;4961724;28;20046;-77
2023/04/27 11:57:32;;;;;;;10.35;4.85;;;;;;;;;;4978001;28;20038;-75
2023/04/27 12:00:00;;;;;;;7.93;4.88;;;;;;;;;;4982237;28;20038;-76
2023/04/27 12:02:26;;;;;;;10.35;4.90;;;;;;;;;;4989514;28;20030;-76
2023/04/27 12:04:52;;;;;;;12.63;5.30;;;;;;;;;;4989053;28;20132;-75
2023/04/27 12:07:19;;;;;;;9.52;4.95;;;;;;;;;;4986848;28;20023;-75
2023/04/27 12:09:45;;;;;;;9.52;5.00;;;;;;;;;;4968286;28;20037;-76
2023/04/27 12:12:12;;;;;;;7.50;4.63;;;;;;;;;;4980783;28;20027;-74
2023/04/27 12:14:42;;;;;;;10.10;5.30;;;;;;;;;;4958784;28;20429;-75
2023/04/27 12:17:08;;;;;;;11.30;5.53;;;;;;;;;;4975414;28;20073;-75
2023/04/27 12:19:35;;;;;;;9.00;4.65;;;;;;;;;;4983140;28;20026;-76
2023/04/27 12:22:01;;;;;;;9.23;5.03;;;;;;;;;;4996062;28;20049;-77
2023/04/27 12:24:28;;;;;;;7.25;4.90;;;;;;;;;;4995652;28;20296;-76
2023/04/27 12:26:54;;;;;;;8.13;4.85;;;;;;;;;;4995470;28;20030;-76
2023/04/27 12:29:21;;;;;;;14.50;5.55;;;;;;;;;;4995245;28;20030;-76
2023/04/27 12:31:47;;;;;;;10.20;5.25;;;;;;;;;;4978056;28;20053;-76
2023/04/27 12:34:13;;;;;;;8.18;5.07;;;;;;;;;;4978063;28;20193;-75
2023/04/27 12:36:39;;;;;;;10.88;5.32;;;;;;;;;;4995777;28;20097;-75
2023/04/27 12:39:31;;;;;;;10.15;5.22;;;;;;;;;;4995094;28;20422;-76
2023/04/27 12:41:57;;;;;;;13.18;6.05;;;;;;;;;;4993680;28;20080;-75
2023/04/27 12:44:23;;;;;;;8.45;5.78;;;;;;;;;;4997139;28;20033;-75
2023/04/27 12:46:49;;;;;;;10.32;5.95;;;;;;;;;;4997434;28;20026;-76
2023/04/27 12:49:16;;;;;;;10.00;5.70;;;;;;;;;;4996869;28;20037;-76
2023/04/27 12:51:42;;;;;;;10.43;6.10;;;;;;;;;;4997727;28;20026;-75
2023/04/27 12:54:09;;;;;;;7.70;5.40;;;;;;;;;;4996010;28;20030;-76
2023/04/27 12:56:36;;;;;;;10.13;5.65;;;;;;;;;;4995759;28;20033;-76
2023/04/27 12:59:02;;;;;;;12.52;6.60;;;;;;;;;;4995976;28;20026;-76
2023/04/27 13:01:30;;;;;;;9.10;5.78;;;;;;;;;;4980309;28;20027;-76
2023/04/27 13:03:58;;;;;;;9.75;5.85;;;;;;;;;;4996358;28;20030;-75
2023/04/27 13:06:24;;;;;;;9.85;5.60;;;;;;;;;;4979827;28;20065;-75
2023/04/27 13:08:50;;;;;;;13.10;6.40;;;;;;;;;;4996978;28;20069;-77
2023/04/27 13:11:17;;;;;;;8.90;5.47;;;;;;;;;;4977671;28;20473;-76
2023/04/27 13:13:43;;;;;;;9.55;5.72;;;;;;;;;;4995010;28;20018;-76
2023/04/27 13:16:10;;;;;;;10.85;5.88;;;;;;;;;;4995079;28;20122;-75
2023/04/27 13:18:37;;;;;;;14.25;5.95;;;;;;;;;;4994937;28;20023;-75
2023/04/27 13:21:04;;;;;;;10.95;5.85;;;;;;;;;;4995196;28;20038;-76
2023/04/27 13:23:30;;;;;;;13.68;6.68;;;;;;;;;;4995042;28;20031;-77
2023/04/27 13:25:56;;;;;;;10.48;5.78;;;;;;;;;;4994718;28;20109;-75
2023/04/27 13:28:22;;;;;;;7.75;6.13;;;;;;;;;;4993865;28;20535;-76
2023/04/27 13:30:48;;;;;;;12.57;6.32;;;;;;;;;;4994443;28;20460;-75
2023/04/27 13:33:14;;;;;;;13.82;6.13;;;;;;;;;;4994374;28;20058;-75
2023/04/27 13:35:41;;;;;;;12.52;5.95;;;;;;;;;;4994141;28;20105;-77
2023/04/27 13:38:07;;;;;;;8.27;5.80;;;;;;;;;;4994239;28;20479;-76
2023/04/27 13:40:33;;;;;;;9.55;6.00;;;;;;;;;;4994426;28;20030;-76
2023/04/27 13:42:59;;;;;;;9.05;5.75;;;;;;;;;;4993953;28;20397;-75
2023/04/27 13:45:25;;;;;;;11.10;6.45;;;;;;;;;;4994764;28;20069;-76
2023/04/27 13:47:51;;;;;;;13.38;6.30;;;;;;;;;;4995035;28;20038;-76
2023/04/27 13:50:17;;;;;;;9.50;6.93;;;;;;;;;;4995204;28;20400;-75
2023/04/27 13:52:43;;;;;;;11.45;6.43;;;;;;;;;;4976836;28;20026;-75
2023/04/27 13:55:10;;;;;;;11.35;6.85;;;;;;;;;;4994010;28;20611;-76
2023/04/27 13:57:36;;;;;;;12.13;7.13;;;;;;;;;;4993958;28;20145;-77
2023/04/27 14:00:03;;;;;;;11.55;6.47;;;;;;;;;;4976424;28;20030;-76
2023/04/27 14:02:29;;;;;;;10.07;6.38;;;;;;;;;;4976547;28;20429;-76
2023/04/27 14:04:55;;;;;;;12.48;6.75;;;;;;;;;;4976449;28;20053;-75
2023/04/27 14:07:22;;;;;;;14.80;7.22;;;;;;;;;;4993767;28;20069;-76
2023/04/27 14:09:48;;;;;;;9.27;6.63;;;;;;;;;;4993948;28;20027;-76
2023/04/27 14:12:14;;;;;;;12.25;6.53;;;;;;;;;;4976352;28;20046;-76
2023/04/27 14:14:40;;;;;;;10.52;6.50;;;;;;;;;;4993466;28;20030;-76
2023/04/27 14:17:06;;;;;;;9.80;6.60;;;;;;;;;;4994007;28;20022;-77
2023/04/27 14:19:32;;;;;;;13.85;6.63;;;;;;;;;;4976613;28;20641;-75
2023/04/27 14:21:59;;;;;;;13.02;7.00;;;;;;;;;;4993708;28;20447;-75
2023/04/27 14:24:25;;;;;;;10.15;7.63;;;;;;;;;;4993720;28;20057;-77
2023/04/27 14:26:51;;;;;;;11.90;6.85;;;;;;;;;;4993506;28;20050;-76
2023/04/27 14:29:17;;;;;;;8.88;6.78;;;;;;;;;;4993720;28;20019;-75
2023/04/27 14:31:44;;;;;;;11.70;6.65;;;;;;;;;;4993568;28;20481;-75